Time;durP1;ratioP1;P1;durP2;ratioP2;P2;SDS_P1;SDS_P2;PMS_P1;PMS_P2;Temp;Humidity;BMP_temperature;BMP_pressure;BME280_temperature;BME280_humidity;BME280_pressure;Samples;Min_cycle;Max_cycle;Signal;HPM_P1;HPM_P2
2021/04/10 00:01:41;;;;;;;28.50;21.85;;;10.10;99.90;;;;;;5020300;28;20140;-80
2021/04/10 00:04:10;;;;;;;28.65;22.13;;;10.00;99.90;;;;;;5019953;28;20061;-81
2021/04/10 00:06:37;;;;;;;27.98;22.23;;;9.90;99.90;;;;;;5017875;28;20510;-80
2021/04/10 00:09:05;;;;;;;32.88;22.55;;;9.90;99.90;;;;;;5015604;28;20582;-78
2021/04/10 00:11:31;;;;;;;27.90;21.52;;;9.90;99.90;;;;;;5014911;28;20225;-79
2021/04/10 00:13:58;;;;;;;29.08;21.75;;;9.90;99.90;;;;;;5014589;28;20157;-79
2021/04/10 00:16:24;;;;;;;26.58;21.33;;;10.00;99.90;;;;;;5013966;28;20133;-81
2021/04/10 00:18:50;;;;;;;27.55;21.30;;;9.90;99.90;;;;;;5019775;28;20109;-82
2021/04/10 00:21:17;;;;;;;27.80;21.15;;;10.00;99.90;;;;;;5020659;28;20077;-83
2021/04/10 00:23:44;;;;;;;28.02;21.92;;;10.00;99.90;;;;;;5020825;28;20045;-83
2021/04/10 00:26:11;;;;;;;30.25;21.13;;;9.90;99.90;;;;;;5021137;28;20081;-79
2021/04/10 00:28:38;;;;;;;27.45;21.80;;;10.00;99.90;;;;;;5022703;28;20089;-81
2021/04/10 00:31:08;;;;;;;28.00;21.42;;;9.90;99.90;;;;;;5019917;28;20114;-81
2021/04/10 00:33:36;;;;;;;26.98;21.38;;;9.90;99.90;;;;;;5018510;28;20054;-81
2021/04/10 00:36:02;;;;;;;31.88;21.95;;;9.90;99.90;;;;;;5019679;28;20133;-81
2021/04/10 00:38:31;;;;;;;28.98;21.27;;;10.00;99.90;;;;;;5019269;28;20089;-80
2021/04/10 00:40:58;;;;;;;25.73;20.73;;;10.10;99.90;;;;;;5018480;28;20096;-80
2021/04/10 00:43:25;;;;;;;30.42;21.40;;;10.10;99.90;;;;;;5023049;28;20072;-79
2021/04/10 00:45:52;;;;;;;28.67;21.75;;;10.10;99.90;;;;;;5023169;28;20069;-81
2021/04/10 00:48:20;;;;;;;31.30;23.23;;;10.10;99.90;;;;;;5018841;28;20118;-80
2021/04/10 00:50:47;;;;;;;26.50;22.92;;;10.10;99.90;;;;;;5016577;28;20141;-80
2021/04/10 00:53:16;;;;;;;29.65;23.30;;;10.20;99.90;;;;;;5015566;28;20100;-82
2021/04/10 00:55:46;;;;;;;31.05;23.27;;;10.10;99.90;;;;;;5016859;28;20153;-80
2021/04/10 00:58:15;;;;;;;32.15;23.70;;;10.10;99.90;;;;;;5016626;28;20050;-80
2021/04/10 01:00:42;;;;;;;33.38;24.95;;;10.10;99.90;;;;;;5016350;28;20688;-80
2021/04/10 01:03:09;;;;;;;35.63;25.17;;;10.10;99.90;;;;;;5016904;28;20129;-81
2021/04/10 01:05:35;;;;;;;34.53;25.70;;;10.10;99.90;;;;;;5016414;28;20807;-80
2021/04/10 01:08:02;;;;;;;34.53;25.83;;;10.10;99.90;;;;;;5016620;28;20523;-81
2021/04/10 01:10:29;;;;;;;32.20;25.10;;;10.10;99.90;;;;;;5017138;28;20136;-81
2021/04/10 01:13:08;;;;;;;33.20;25.33;;;10.10;99.90;;;;;;5020536;28;20184;-81
2021/04/10 01:15:43;;;;;;;37.08;26.05;;;10.10;99.90;;;;;;5019355;28;20133;-81
2021/04/10 01:18:15;;;;;;;31.83;25.20;;;10.10;99.90;;;;;;5019388;28;20054;-81
2021/04/10 01:21:08;;;;;;;31.58;25.33;;;10.10;99.90;;;;;;5020378;28;20069;-82
2021/04/10 01:24:33;;;;;;;34.78;25.55;;;10.20;99.90;;;;;;5020145;28;20049;-81
2021/04/10 01:27:37;;;;;;;33.95;25.77;;;10.10;99.90;;;;;;5020786;28;20133;-81
2021/04/10 01:30:09;;;;;;;36.15;25.80;;;10.10;99.90;;;;;;5023608;28;20054;-81
2021/04/10 01:32:48;;;;;;;35.00;26.20;;;10.10;99.90;;;;;;5022062;28;20244;-80
2021/04/10 01:35:17;;;;;;;35.90;27.35;;;10.00;99.90;;;;;;5022715;28;20117;-80
2021/04/10 01:37:51;;;;;;;34.03;26.88;;;10.10;99.90;;;;;;5021022;28;20085;-83
2021/04/10 01:40:19;;;;;;;34.20;27.60;;;10.10;99.90;;;;;;5021092;28;20110;-82
2021/04/10 01:42:47;;;;;;;32.35;26.40;;;10.10;99.90;;;;;;5020858;28;20088;-83
2021/04/10 01:45:16;;;;;;;38.42;27.20;;;10.10;99.90;;;;;;5021039;28;20054;-83
2021/04/10 01:47:45;;;;;;;34.40;26.45;;;10.10;99.90;;;;;;5020467;28;20473;-81
2021/04/10 01:50:13;;;;;;;33.90;25.73;;;10.10;99.90;;;;;;5020549;28;20136;-82
2021/04/10 01:52:45;;;;;;;35.53;27.05;;;10.00;99.90;;;;;;5021168;28;20143;-82
2021/04/10 01:55:13;;;;;;;34.47;26.52;;;9.90;99.90;;;;;;5021705;28;20096;-82
2021/04/10 01:57:40;;;;;;;33.28;27.55;;;9.80;99.90;;;;;;5023394;28;20109;-82
2021/04/10 02:00:08;;;;;;;35.83;27.88;;;9.70;99.90;;;;;;5023208;28;20312;-81
2021/04/10 02:02:38;;;;;;;38.80;27.83;;;9.70;99.90;;;;;;5028504;28;20144;-82
2021/04/10 02:05:07;;;;;;;34.50;25.92;;;9.80;99.90;;;;;;5034317;28;20478;-81
2021/04/10 02:07:34;;;;;;;33.72;26.77;;;9.70;99.90;;;;;;5034850;28;20057;-80
2021/04/10 02:10:03;;;;;;;30.40;24.75;;;9.70;99.90;;;;;;5028361;28;20073;-81
2021/04/10 02:12:33;;;;;;;31.85;24.83;;;9.80;99.90;;;;;;5021076;28;20092;-81
2021/04/10 02:15:00;;;;;;;34.45;25.58;;;9.80;99.90;;;;;;5019949;28;20053;-79
2021/04/10 02:17:27;;;;;;;32.95;24.95;;;9.80;99.90;;;;;;5019526;28;20113;-81
2021/04/10 02:19:56;;;;;;;29.83;24.73;;;9.80;99.90;;;;;;5019804;28;20128;-81
2021/04/10 02:22:23;;;;;;;32.25;25.00;;;9.80;99.90;;;;;;5018449;28;20111;-81
2021/04/10 02:24:50;;;;;;;32.17;26.27;;;9.80;99.90;;;;;;5019673;28;20050;-79
2021/04/10 02:27:16;;;;;;;32.05;25.13;;;9.80;99.90;;;;;;5019501;28;20483;-81
2021/04/10 02:29:43;;;;;;;30.20;25.73;;;9.80;99.90;;;;;;5019946;28;20101;-81
2021/04/10 02:32:15;;;;;;;34.58;26.55;;;9.80;99.90;;;;;;5020528;28;20578;-81
2021/04/10 02:34:48;;;;;;;37.40;25.88;;;9.80;99.90;;;;;;5019907;28;20081;-81
2021/04/10 02:37:17;;;;;;;34.47;27.60;;;9.70;99.90;;;;;;5019112;28;20437;-81
2021/04/10 02:39:46;;;;;;;34.97;26.25;;;9.70;99.90;;;;;;5018466;28;20132;-80
2021/04/10 02:42:14;;;;;;;33.30;26.63;;;9.60;99.90;;;;;;5017532;28;20129;-80
2021/04/10 02:44:46;;;;;;;33.53;27.33;;;9.60;99.90;;;;;;5018067;28;20553;-80
2021/04/10 02:47:14;;;;;;;35.67;28.67;;;9.60;99.90;;;;;;5017378;28;20414;-80
2021/04/10 02:49:44;;;;;;;36.22;27.40;;;9.60;99.90;;;;;;5018029;28;20054;-79
2021/04/10 02:52:11;;;;;;;37.03;27.63;;;9.60;99.90;;;;;;5017149;28;20133;-80
2021/04/10 02:54:46;;;;;;;36.00;27.23;;;9.60;99.90;;;;;;5018521;28;20082;-79
2021/04/10 02:57:16;;;;;;;34.45;26.45;;;9.60;99.90;;;;;;5019795;28;20106;-82
2021/04/10 02:59:45;;;;;;;33.58;28.05;;;9.60;99.90;;;;;;5021203;28;20403;-81
2021/04/10 03:02:13;;;;;;;36.67;28.42;;;9.50;99.90;;;;;;5026806;28;20049;-82
2021/04/10 03:04:42;;;;;;;37.65;28.77;;;9.50;99.90;;;;;;5021008;28;20089;-82
2021/04/10 03:07:10;;;;;;;34.33;28.20;;;9.50;99.90;;;;;;5021844;28;20133;-81
2021/04/10 03:09:39;;;;;;;37.95;28.80;;;9.50;99.90;;;;;;5021927;28;20073;-81
2021/04/10 03:12:06;;;;;;;39.50;29.85;;;9.50;99.90;;;;;;5023159;28;20053;-81
2021/04/10 03:14:34;;;;;;;36.75;28.20;;;9.40;99.90;;;;;;5036650;28;20038;-83
2021/04/10 03:17:02;;;;;;;35.28;28.17;;;9.40;99.90;;;;;;5035988;28;20073;-82
2021/04/10 03:19:30;;;;;;;40.90;30.45;;;9.40;99.90;;;;;;5017898;28;20085;-80
2021/04/10 03:21:56;;;;;;;38.67;30.13;;;9.40;99.90;;;;;;5015697;28;20136;-79
2021/04/10 03:24:22;;;;;;;41.05;30.70;;;9.30;99.90;;;;;;5018346;28;20054;-81
2021/04/10 03:26:50;;;;;;;39.40;31.27;;;9.30;99.90;;;;;;5019860;28;20136;-81
2021/04/10 03:29:16;;;;;;;39.20;29.77;;;9.30;99.90;;;;;;5018542;28;20057;-80
2021/04/10 03:31:43;;;;;;;39.03;30.63;;;9.30;99.90;;;;;;5017205;28;20422;-82
2021/04/10 03:34:10;;;;;;;39.45;31.77;;;9.20;99.90;;;;;;5015812;28;20061;-81
2021/04/10 03:36:36;;;;;;;42.53;32.40;;;9.20;99.90;;;;;;5015893;28;20133;-81
2021/04/10 03:39:03;;;;;;;45.13;32.72;;;9.20;99.90;;;;;;5015583;28;20142;-81
2021/04/10 03:41:30;;;;;;;47.47;33.33;;;9.10;99.90;;;;;;5015606;28;20159;-81
2021/04/10 03:43:57;;;;;;;45.25;33.25;;;9.20;99.90;;;;;;5019270;28;20227;-80
2021/04/10 03:46:23;;;;;;;47.85;33.53;;;9.20;99.90;;;;;;5017871;28;20053;-81
2021/04/10 03:48:50;;;;;;;46.20;32.92;;;9.20;99.90;;;;;;5017821;28;20089;-80
2021/04/10 03:51:16;;;;;;;45.10;33.58;;;9.20;99.90;;;;;;5019721;28;20114;-81
2021/04/10 03:53:42;;;;;;;42.83;32.90;;;9.20;99.90;;;;;;5019751;28;20135;-82
2021/04/10 03:56:10;;;;;;;44.38;33.13;;;9.20;99.90;;;;;;5019332;28;20137;-81
2021/04/10 03:58:37;;;;;;;48.08;33.22;;;9.20;99.90;;;;;;5020073;28;20531;-81
2021/04/10 04:01:04;;;;;;;50.60;35.63;;;9.10;99.90;;;;;;5020182;28;20522;-80
2021/04/10 04:03:30;;;;;;;46.65;34.55;;;9.00;99.90;;;;;;5020210;28;20561;-80
2021/04/10 04:05:57;;;;;;;52.28;37.00;;;9.00;99.90;;;;;;5020308;28;20112;-81
2021/04/10 04:08:23;;;;;;;51.05;37.28;;;8.90;99.90;;;;;;5048521;22;20128;-78
2021/04/10 04:10:49;;;;;;;49.75;36.22;;;8.90;99.90;;;;;;5034201;28;20134;-77
2021/04/10 04:13:16;;;;;;;51.53;36.70;;;8.90;99.90;;;;;;5033960;28;20050;-76
2021/04/10 04:15:42;;;;;;;53.00;37.83;;;8.90;99.90;;;;;;5033540;28;20132;-75
2021/04/10 04:18:09;;;;;;;50.10;36.15;;;8.90;99.90;;;;;;5033187;28;20085;-76
2021/04/10 04:20:36;;;;;;;49.78;37.83;;;8.90;99.90;;;;;;5036422;28;20129;-77
2021/04/10 04:23:02;;;;;;;55.83;39.88;;;8.90;99.90;;;;;;5039020;28;20128;-75
2021/04/10 04:25:28;;;;;;;53.92;39.22;;;8.90;99.90;;;;;;5037230;28;20109;-76
2021/04/10 04:27:55;;;;;;;51.50;37.05;;;8.90;99.90;;;;;;5039962;28;20060;-76
2021/04/10 04:30:22;;;;;;;52.22;39.20;;;8.90;99.90;;;;;;5042514;28;20100;-75
2021/04/10 04:32:49;;;;;;;52.95;38.92;;;8.90;99.90;;;;;;5040663;28;20095;-76
2021/04/10 04:35:16;;;;;;;50.63;38.78;;;8.90;99.90;;;;;;5036414;28;20049;-78
2021/04/10 04:37:42;;;;;;;54.30;39.22;;;9.00;99.90;;;;;;5032862;28;20132;-77
2021/04/10 04:40:10;;;;;;;50.53;38.53;;;8.90;99.90;;;;;;5033581;28;20136;-77
2021/04/10 04:42:36;;;;;;;50.42;38.63;;;8.90;99.90;;;;;;5033444;28;20556;-76
2021/04/10 04:45:03;;;;;;;53.25;37.90;;;8.90;99.90;;;;;;5031973;28;20132;-77
2021/04/10 04:47:29;;;;;;;52.83;38.83;;;8.90;99.90;;;;;;5032465;28;20055;-77
2021/04/10 04:49:55;;;;;;;52.95;39.28;;;8.80;99.90;;;;;;5032788;28;20560;-77
2021/04/10 04:52:23;;;;;;;54.00;39.13;;;8.70;99.90;;;;;;5032532;28;20417;-77
2021/04/10 04:54:49;;;;;;;51.65;38.60;;;8.70;99.90;;;;;;5032327;28;20049;-77
2021/04/10 04:57:15;;;;;;;59.53;40.00;;;8.70;99.90;;;;;;5031830;28;20141;-76
2021/04/10 04:59:42;;;;;;;53.30;37.97;;;8.60;99.90;;;;;;5032622;28;20608;-76
2021/04/10 05:02:08;;;;;;;51.25;38.58;;;8.60;99.90;;;;;;5032373;28;20413;-77
2021/04/10 05:04:34;;;;;;;53.83;40.25;;;8.60;99.90;;;;;;5032652;28;20124;-77
2021/04/10 05:07:01;;;;;;;54.45;39.30;;;8.50;99.90;;;;;;5032038;28;20125;-77
2021/04/10 05:09:28;;;;;;;57.95;40.67;;;8.50;99.90;;;;;;5031772;28;20448;-78
2021/04/10 05:11:54;;;;;;;57.78;41.67;;;8.50;99.90;;;;;;5039773;28;20127;-77
2021/04/10 05:14:21;;;;;;;57.53;41.10;;;8.60;99.90;;;;;;5032169;28;20136;-78
2021/04/10 05:16:47;;;;;;;59.30;42.88;;;8.60;99.90;;;;;;5031727;28;20077;-77
2021/04/10 05:19:13;;;;;;;59.47;43.28;;;8.70;99.90;;;;;;5032330;28;20132;-78
2021/04/10 05:21:40;;;;;;;59.28;43.00;;;8.70;99.90;;;;;;5032019;28;20133;-77
2021/04/10 05:24:07;;;;;;;57.65;43.47;;;8.70;99.90;;;;;;5031674;28;20085;-78
2021/04/10 05:26:34;;;;;;;59.95;44.60;;;8.70;99.90;;;;;;5031561;28;20060;-77
2021/04/10 05:29:01;;;;;;;58.85;41.47;;;8.70;99.90;;;;;;5032160;28;20050;-78
2021/04/10 05:31:29;;;;;;;57.08;42.50;;;8.80;99.90;;;;;;5032123;28;20058;-77
2021/04/10 05:33:56;;;;;;;59.90;43.03;;;8.70;99.90;;;;;;5032138;28;20140;-77
2021/04/10 05:36:22;;;;;;;59.17;43.05;;;8.70;99.90;;;;;;5031842;28;20191;-78
2021/04/10 05:38:48;;;;;;;64.00;42.67;;;8.80;99.90;;;;;;5031765;28;20080;-77
2021/04/10 05:41:15;;;;;;;57.05;41.20;;;8.70;99.90;;;;;;5031906;28;20473;-78
2021/04/10 05:43:42;;;;;;;57.22;40.90;;;8.80;99.90;;;;;;5031983;28;20057;-78
2021/04/10 05:46:08;;;;;;;58.55;41.30;;;8.80;99.90;;;;;;5032845;28;20462;-78
2021/04/10 05:48:35;;;;;;;58.33;42.38;;;8.80;99.90;;;;;;5032441;28;20136;-78
2021/04/10 05:51:01;;;;;;;56.13;41.65;;;8.90;99.90;;;;;;5032615;28;20140;-77
2021/04/10 05:53:28;;;;;;;54.22;40.35;;;8.90;99.90;;;;;;5032385;28;20071;-78
2021/04/10 05:55:54;;;;;;;55.25;41.42;;;9.00;99.90;;;;;;5034186;28;20198;-77
2021/04/10 05:58:20;;;;;;;59.85;42.90;;;9.00;99.90;;;;;;5053190;28;20059;-78
2021/04/10 06:00:48;;;;;;;51.92;40.20;;;9.00;99.90;;;;;;5050293;28;20132;-78
2021/04/10 06:03:14;;;;;;;55.17;39.42;;;9.00;99.90;;;;;;5045603;28;20060;-77
2021/04/10 06:05:44;;;;;;;53.33;40.05;;;9.00;99.90;;;;;;5035536;28;20429;-78
2021/04/10 06:08:11;;;;;;;57.08;41.33;;;8.90;99.90;;;;;;5036173;28;20052;-78
2021/04/10 06:10:37;;;;;;;55.72;41.15;;;9.00;99.90;;;;;;5047654;28;20055;-79
2021/04/10 06:13:04;;;;;;;54.78;40.92;;;9.00;99.90;;;;;;5058307;28;20110;-78
2021/04/10 06:15:30;;;;;;;54.08;40.67;;;9.10;99.90;;;;;;5058776;28;20170;-77
2021/04/10 06:17:57;;;;;;;50.65;39.47;;;9.10;99.90;;;;;;5057987;28;20045;-79
2021/04/10 06:20:24;;;;;;;46.90;37.67;;;9.20;99.90;;;;;;5057225;28;20503;-78
2021/04/10 06:22:51;;;;;;;52.35;37.50;;;9.20;99.90;;;;;;5056223;28;20049;-77
2021/04/10 06:25:17;;;;;;;47.40;37.05;;;9.30;99.90;;;;;;5055083;28;20059;-77
2021/04/10 06:27:44;;;;;;;50.22;35.95;;;9.40;99.90;;;;;;5055096;28;20259;-78
2021/04/10 06:30:11;;;;;;;41.13;31.27;;;9.50;99.90;;;;;;5055692;28;20569;-78
2021/04/10 06:32:38;;;;;;;39.20;29.00;;;9.50;99.90;;;;;;5055089;28;20139;-78
2021/04/10 06:35:06;;;;;;;39.53;29.63;;;9.60;99.90;;;;;;5054916;28;20044;-77
2021/04/10 06:37:33;;;;;;;39.45;31.13;;;9.60;99.90;;;;;;5054279;28;20139;-78
2021/04/10 06:39:59;;;;;;;33.03;28.20;;;9.60;99.90;;;;;;5056522;28;20136;-79
2021/04/10 06:42:26;;;;;;;35.88;29.73;;;9.70;99.90;;;;;;5057630;28;20084;-78
2021/04/10 06:44:54;;;;;;;38.28;29.10;;;9.70;99.90;;;;;;5062593;28;20176;-79
2021/04/10 06:47:22;;;;;;;34.88;27.85;;;9.80;99.90;;;;;;5062017;28;20127;-78
2021/04/10 06:49:51;;;;;;;37.35;29.33;;;9.90;99.90;;;;;;5060842;28;20135;-79
2021/04/10 06:52:19;;;;;;;40.20;29.27;;;10.00;99.90;;;;;;5064558;28;20049;-78
2021/04/10 06:54:48;;;;;;;36.83;28.95;;;10.10;99.90;;;;;;5059238;28;20049;-78
2021/04/10 06:57:17;;;;;;;37.20;29.20;;;10.10;99.90;;;;;;5055935;28;20048;-78
2021/04/10 06:59:49;;;;;;;36.90;29.35;;;10.20;99.90;;;;;;5055756;28;20053;-78
2021/04/10 07:02:16;;;;;;;37.57;31.17;;;10.20;99.90;;;;;;5056330;28;20049;-79
2021/04/10 07:04:43;;;;;;;36.10;29.23;;;10.20;99.90;;;;;;5056141;28;20534;-78
2021/04/10 07:07:10;;;;;;;37.20;30.08;;;10.30;99.90;;;;;;5054703;28;20045;-79
2021/04/10 07:09:38;;;;;;;34.78;29.40;;;10.30;99.90;;;;;;5054063;28;20529;-78
2021/04/10 07:12:06;;;;;;;37.45;29.38;;;10.30;99.90;;;;;;5061335;28;20049;-79
2021/04/10 07:14:32;;;;;;;37.85;27.83;;;10.50;99.90;;;;;;5055671;28;20458;-77
2021/04/10 07:16:59;;;;;;;33.15;27.33;;;10.70;99.90;;;;;;5053879;28;20120;-78
2021/04/10 07:19:26;;;;;;;33.95;27.88;;;10.80;99.90;;;;;;5054376;28;20085;-78
2021/04/10 07:22:07;;;;;;;36.00;26.48;;;11.10;99.90;;;;;;5054152;28;20421;-79
2021/04/10 07:24:39;;;;;;;32.97;26.95;;;11.40;99.90;;;;;;5056179;28;20320;-78
2021/04/10 07:27:07;;;;;;;33.08;27.02;;;11.60;99.90;;;;;;5054575;28;20049;-79
2021/04/10 07:29:35;;;;;;;34.85;26.90;;;11.80;99.90;;;;;;5054621;28;20055;-79
2021/04/10 07:32:22;;;;;;;31.42;25.63;;;11.80;99.90;;;;;;5055273;28;20132;-79
2021/04/10 07:34:49;;;;;;;34.70;28.05;;;11.80;99.90;;;;;;5056693;28;20045;-79
2021/04/10 07:37:33;;;;;;;31.73;27.02;;;11.70;99.90;;;;;;5057206;28;20049;-79
2021/04/10 07:40:01;;;;;;;36.90;27.80;;;11.70;99.90;;;;;;5056340;28;20495;-79
2021/04/10 07:42:28;;;;;;;33.13;27.45;;;11.70;99.90;;;;;;5055893;28;20073;-79
2021/04/10 07:44:56;;;;;;;34.53;27.35;;;11.80;99.90;;;;;;5056015;28;20053;-79
2021/04/10 07:47:37;;;;;;;29.42;25.60;;;11.90;99.90;;;;;;5056616;28;20048;-79
2021/04/10 07:50:19;;;;;;;34.25;27.92;;;12.00;99.90;;;;;;5055969;28;20091;-78
2021/04/10 07:52:46;;;;;;;36.70;28.08;;;12.10;99.90;;;;;;5054755;28;20083;-78
2021/04/10 07:55:36;;;;;;;34.03;26.77;;;12.10;99.90;;;;;;5054978;28;20179;-79
2021/04/10 07:58:28;;;;;;;26.08;22.08;;;12.40;99.90;;;;;;5054025;28;20663;-79
2021/04/10 08:00:57;;;;;;;27.25;23.63;;;12.50;99.90;;;;;;5054680;28;20053;-79
2021/04/10 08:03:26;;;;;;;28.85;22.73;;;12.70;99.90;;;;;;5053818;28;20057;-80
2021/04/10 08:05:52;;;;;;;27.45;22.27;;;12.90;99.90;;;;;;5056339;28;20060;-79
2021/04/10 08:08:21;;;;;;;31.08;23.00;;;12.90;99.90;;;;;;5054749;28;20099;-79
2021/04/10 08:10:48;;;;;;;27.77;22.33;;;13.00;99.90;;;;;;5055007;28;20049;-79
2021/04/10 08:13:15;;;;;;;25.45;21.80;;;13.00;99.90;;;;;;5054931;28;20136;-79
2021/04/10 08:15:41;;;;;;;26.90;21.92;;;13.20;99.90;;;;;;5054904;28;20553;-79
2021/04/10 08:18:23;;;;;;;28.40;22.95;;;13.20;99.90;;;;;;5053954;28;20053;-77
2021/04/10 08:20:50;;;;;;;27.00;23.15;;;13.00;99.90;;;;;;5055117;28;20072;-78
2021/04/10 08:23:23;;;;;;;29.65;24.35;;;12.80;99.90;;;;;;5055565;28;20137;-80
2021/04/10 08:25:53;;;;;;;29.23;24.98;;;12.80;99.90;;;;;;5056380;28;20053;-79
2021/04/10 08:28:25;;;;;;;33.22;26.38;;;12.50;99.90;;;;;;5056727;28;20056;-78
2021/04/10 08:30:51;;;;;;;29.50;25.40;;;12.20;99.90;;;;;;5056261;28;20060;-79
2021/04/10 08:33:18;;;;;;;27.70;23.80;;;12.30;99.90;;;;;;5055516;28;20080;-79
2021/04/10 08:35:45;;;;;;;30.15;26.27;;;12.10;99.90;;;;;;5054375;28;20501;-78
2021/04/10 08:38:12;;;;;;;30.17;25.73;;;12.10;99.90;;;;;;5052936;28;20124;-79
2021/04/10 08:40:39;;;;;;;30.83;25.50;;;12.10;99.90;;;;;;5054138;28;20438;-78
2021/04/10 08:43:13;;;;;;;33.53;27.08;;;12.20;99.90;;;;;;5053167;28;20179;-79
2021/04/10 08:45:39;;;;;;;29.70;24.58;;;12.30;99.90;;;;;;5053627;28;20053;-79
2021/04/10 08:48:09;;;;;;;28.85;23.77;;;12.20;99.90;;;;;;5052530;28;20041;-79
2021/04/10 08:50:37;;;;;;;32.60;26.08;;;12.20;99.90;;;;;;5052284;28;20049;-77
2021/04/10 08:53:06;;;;;;;32.08;27.00;;;12.10;99.90;;;;;;5052835;28;20103;-79
2021/04/10 08:55:32;;;;;;;32.08;26.45;;;12.20;99.90;;;;;;5053753;28;20052;-78
2021/04/10 08:58:19;;;;;;;33.08;26.55;;;12.10;99.90;;;;;;5052951;28;20044;-77
2021/04/10 09:00:46;;;;;;;32.83;27.60;;;12.20;99.90;;;;;;5053249;28;20053;-77
2021/04/10 09:03:13;;;;;;;30.38;26.23;;;12.30;99.90;;;;;;5054977;28;20549;-80
2021/04/10 09:05:49;;;;;;;31.55;27.35;;;12.20;99.90;;;;;;5056457;28;20417;-79
2021/04/10 09:08:26;;;;;;;33.50;27.90;;;12.40;99.90;;;;;;5053743;28;20092;-78
2021/04/10 09:10:57;;;;;;;35.78;29.08;;;12.40;99.90;;;;;;5054508;28;20053;-78
2021/04/10 09:13:48;;;;;;;36.97;31.05;;;12.30;99.90;;;;;;5053170;28;20078;-79
2021/04/10 09:16:37;;;;;;;31.90;28.30;;;12.30;99.90;;;;;;5054120;28;20128;-78
2021/04/10 09:19:13;;;;;;;31.52;27.10;;;12.20;99.90;;;;;;5054151;28;20109;-79
2021/04/10 09:21:43;;;;;;;30.75;27.45;;;12.40;99.90;;;;;;5052855;28;20067;-78
2021/04/10 09:24:30;;;;;;;28.65;22.60;;;12.60;99.90;;;;;;5052338;28;20476;-77
2021/04/10 09:26:59;;;;;;;24.27;21.63;;;12.50;99.90;;;;;;5052186;28;20049;-78
2021/04/10 09:29:27;;;;;;;26.45;21.00;;;12.50;99.90;;;;;;5051750;28;20045;-79
2021/04/10 09:31:57;;;;;;;24.75;21.90;;;12.40;99.90;;;;;;5054229;28;20055;-78
2021/04/10 09:34:46;;;;;;;22.58;19.52;;;12.40;99.90;;;;;;5059063;28;20079;-79
2021/04/10 09:37:13;;;;;;;22.25;19.55;;;12.60;99.90;;;;;;5059149;28;20140;-77
2021/04/10 09:39:52;;;;;;;20.15;18.00;;;12.50;99.90;;;;;;5070559;28;20076;-78
2021/04/10 09:42:45;;;;;;;22.60;19.23;;;12.60;99.90;;;;;;5067738;28;20126;-79
2021/04/10 09:45:15;;;;;;;23.95;21.35;;;12.60;99.90;;;;;;5061138;28;20048;-79
2021/04/10 09:48:15;;;;;;;22.10;19.80;;;12.40;99.90;;;;;;5058201;28;20482;-79
2021/04/10 09:50:48;;;;;;;22.42;20.02;;;12.60;99.90;;;;;;5038925;28;20505;-79
2021/04/10 09:53:15;;;;;;;;;;;12.80;99.90;;;;;;5060660;28;20128;-80
2021/04/10 09:55:43;;;;;;;22.80;20.00;;;13.00;99.90;;;;;;5059839;28;19931;-80
2021/04/10 09:58:14;;;;;;;26.75;19.75;;;12.70;99.90;;;;;;5059337;28;20136;-79
2021/04/10 10:00:43;;;;;;;20.88;18.67;;;12.70;99.90;;;;;;5061718;28;20487;-80
2021/04/10 10:03:11;;;;;;;23.40;18.30;;;12.60;99.90;;;;;;5062214;28;20084;-79
2021/04/10 10:05:38;;;;;;;21.33;18.83;;;12.70;99.90;;;;;;5063389;28;20489;-79
2021/04/10 10:08:06;;;;;;;35.40;31.17;;;12.90;99.90;;;;;;5074604;22;20097;-78
2021/04/10 10:10:34;;;;;;;22.45;19.35;;;13.10;99.90;;;;;;5051236;28;20435;-78
2021/04/10 10:13:02;;;;;;;21.67;19.38;;;13.10;99.90;;;;;;5058621;28;20479;-79
2021/04/10 10:15:29;;;;;;;22.42;20.02;;;13.00;99.90;;;;;;5058874;28;20136;-81
2021/04/10 10:17:58;;;;;;;20.73;18.65;;;13.00;99.90;;;;;;5058785;28;20045;-80
2021/04/10 10:20:25;;;;;;;21.10;18.65;;;13.10;99.90;;;;;;5057897;28;20045;-80
2021/04/10 10:22:51;;;;;;;19.08;17.08;;;13.10;99.90;;;;;;5058538;28;20112;-81
2021/04/10 10:25:19;;;;;;;20.48;18.27;;;13.10;99.90;;;;;;5039236;28;20092;-81
2021/04/10 10:27:46;;;;;;;18.40;16.48;;;13.20;99.90;;;;;;5038695;28;20052;-80
2021/04/10 10:30:14;;;;;;;20.70;16.23;;;13.10;99.90;;;;;;5039660;28;20061;-78
2021/04/10 10:32:44;;;;;;;17.60;15.80;;;12.90;99.90;;;;;;5037331;28;20073;-79
2021/04/10 10:35:12;;;;;;;16.65;14.90;;;12.60;99.90;;;;;;5037151;28;20056;-79
2021/04/10 10:37:39;;;;;;;18.67;15.10;;;12.60;99.90;;;;;;5052705;28;20045;-78
2021/04/10 10:40:07;;;;;;;16.30;14.50;;;12.60;99.90;;;;;;5049665;28;20088;-78
2021/04/10 10:42:33;;;;;;;15.73;14.13;;;12.70;99.90;;;;;;5035526;28;20151;-80
2021/04/10 10:45:00;;;;;;;17.35;14.43;;;12.70;99.90;;;;;;5036245;28;20108;-79
2021/04/10 10:47:27;;;;;;;17.42;14.98;;;12.60;99.90;;;;;;5036724;28;20073;-80
2021/04/10 10:49:53;;;;;;;21.02;17.25;;;12.50;99.90;;;;;;5038553;28;20085;-80
2021/04/10 10:52:21;;;;;;;25.90;22.10;;;12.50;99.90;;;;;;5040900;28;20061;-80
2021/04/10 10:54:48;;;;;;;28.35;25.25;;;12.40;99.90;;;;;;5040097;28;20117;-81
2021/04/10 10:57:16;;;;;;;30.92;27.60;;;12.10;99.90;;;;;;5039068;28;20054;-80
2021/04/10 10:59:42;;;;;;;33.58;28.15;;;11.90;99.90;;;;;;5039052;28;20077;-79
2021/04/10 11:02:09;;;;;;;33.33;27.40;;;11.90;99.90;;;;;;5039909;28;20080;-81
2021/04/10 11:04:37;;;;;;;28.45;25.42;;;11.90;99.90;;;;;;5038376;28;20499;-79
2021/04/10 11:07:06;;;;;;;30.90;27.60;;;11.90;99.90;;;;;;5038192;28;20068;-80
2021/04/10 11:09:36;;;;;;;26.45;23.60;;;11.80;99.90;;;;;;5038958;28;20147;-80
2021/04/10 11:12:05;;;;;;;28.08;25.08;;;11.70;99.90;;;;;;5038951;28;20081;-80
2021/04/10 11:14:34;;;;;;;29.15;23.92;;;11.70;99.90;;;;;;5037312;28;20108;-80
2021/04/10 11:17:03;;;;;;;29.63;24.55;;;11.60;99.90;;;;;;5038996;28;20050;-80
2021/04/10 11:19:31;;;;;;;26.38;23.55;;;11.60;99.90;;;;;;5038724;28;20061;-82
2021/04/10 11:21:58;;;;;;;28.35;25.02;;;11.50;99.90;;;;;;5038935;28;20137;-80
2021/04/10 11:24:35;;;;;;;28.13;24.77;;;11.40;99.90;;;;;;5036867;28;20132;-80
2021/04/10 11:27:11;;;;;;;30.02;25.50;;;11.20;99.90;;;;;;5037759;28;20049;-80
2021/04/10 11:29:38;;;;;;;29.33;25.70;;;11.30;99.90;;;;;;5038478;28;20084;-79
2021/04/10 11:32:16;;;;;;;27.88;24.33;;;11.30;99.90;;;;;;5039051;28;20102;-80
2021/04/10 11:34:52;;;;;;;28.45;23.45;;;11.30;99.90;;;;;;5039409;28;20109;-80
2021/04/10 11:37:21;;;;;;;26.63;21.70;;;11.30;99.90;;;;;;5039052;28;20041;-80
2021/04/10 11:39:50;;;;;;;26.63;20.95;;;11.20;99.90;;;;;;5039853;28;20045;-80
2021/04/10 11:42:24;;;;;;;26.05;20.83;;;11.20;99.90;;;;;;5040613;28;20128;-80
2021/04/10 11:44:51;;;;;;;21.77;19.25;;;11.20;99.90;;;;;;5042196;28;20156;-80
2021/04/10 11:47:21;;;;;;;23.10;19.35;;;11.30;99.90;;;;;;5042761;28;20045;-80
2021/04/10 11:49:48;;;;;;;24.75;20.50;;;11.30;99.90;;;;;;5041851;28;20132;-80
2021/04/10 11:52:15;;;;;;;25.08;19.77;;;11.30;99.90;;;;;;5039799;28;20080;-80
2021/04/10 11:54:41;;;;;;;25.25;19.55;;;11.30;99.90;;;;;;5039120;28;20577;-81
2021/04/10 11:57:27;;;;;;;25.70;18.70;;;11.30;99.90;;;;;;5039500;28;20068;-80
2021/04/10 12:00:08;;;;;;;28.33;19.98;;;11.30;99.90;;;;;;5037453;28;20053;-80
2021/04/10 12:02:36;;;;;;;22.83;19.27;;;11.20;99.90;;;;;;5040308;28;20133;-80
2021/04/10 12:05:23;;;;;;;26.25;19.58;;;11.20;99.90;;;;;;5039296;28;20702;-79
2021/04/10 12:08:09;;;;;;;25.80;20.30;;;11.20;99.90;;;;;;5039595;28;20052;-80
2021/04/10 12:10:37;;;;;;;23.58;19.90;;;11.10;99.90;;;;;;5041089;28;20075;-82
2021/04/10 12:13:04;;;;;;;27.52;21.65;;;11.10;99.90;;;;;;5036484;28;20132;-78
2021/04/10 12:15:35;;;;;;;25.58;20.35;;;11.10;99.90;;;;;;5034977;28;20132;-80
2021/04/10 12:18:01;;;;;;;26.45;21.65;;;11.10;99.90;;;;;;5036919;28;20049;-78
2021/04/10 12:20:28;;;;;;;29.15;22.77;;;11.10;99.90;;;;;;5036791;28;20539;-79
2021/04/10 12:22:54;;;;;;;31.10;22.00;;;11.10;99.90;;;;;;5037034;28;20049;-80
2021/04/10 12:25:21;;;;;;;27.23;21.65;;;11.20;99.90;;;;;;5038040;28;20061;-79
2021/04/10 12:27:47;;;;;;;30.20;22.85;;;11.30;99.90;;;;;;5042948;28;20077;-80
2021/04/10 12:30:16;;;;;;;32.05;23.20;;;11.30;99.90;;;;;;5049043;28;20104;-81
2021/04/10 12:32:43;;;;;;;27.73;23.05;;;11.30;99.90;;;;;;5050335;28;20072;-80
2021/04/10 12:35:10;;;;;;;27.35;23.42;;;11.40;99.90;;;;;;5052252;28;20049;-80
2021/04/10 12:37:37;;;;;;;28.25;24.15;;;11.50;99.90;;;;;;5037954;28;20103;-80
2021/04/10 12:40:05;;;;;;;28.00;22.38;;;11.40;99.90;;;;;;5035148;28;20144;-80
2021/04/10 12:42:32;;;;;;;30.40;23.98;;;11.40;99.90;;;;;;5034216;28;20049;-80